createdAt,value
2022-08-22T00:02:03.903Z,93.61
2022-08-22T00:02:57.730Z,90.46
2022-08-22T00:02:58.816Z,87.00
2022-08-22T00:02:59.185Z,91.27
2022-08-22T00:03:01.017Z,84.78
2022-08-22T00:03:01.450Z,77.26
2022-08-22T00:03:02.740Z,85.27
2022-08-22T00:04:38.170Z,93.90
2022-08-22T00:07:13.934Z,94.19
2022-08-22T00:09:48.954Z,93.68
2022-08-22T00:12:22.454Z,93.71
2022-08-22T00:14:54.912Z,93.72
2022-08-22T00:17:38.061Z,93.85
2022-08-22T00:20:13.452Z,94.11
2022-08-22T00:22:47.695Z,93.62
2022-08-22T00:25:38.477Z,93.43
2022-08-22T00:28:11.610Z,93.44
2022-08-22T00:30:51.161Z,93.63
2022-08-22T00:33:26.744Z,93.66
2022-08-22T00:36:07.404Z,93.51
2022-08-22T00:38:39.333Z,93.36
2022-08-22T00:41:17.054Z,93.26
2022-08-22T00:44:20.086Z,93.77
2022-08-22T00:47:13.561Z,94.05
2022-08-22T00:50:19.734Z,94.52
2022-08-22T00:53:14.543Z,94.15
2022-08-22T00:56:10.532Z,93.83
2022-08-22T00:59:22.806Z,93.97
2022-08-22T01:01:56.473Z,93.98
2022-08-22T01:04:40.025Z,94.76
2022-08-22T01:07:25.852Z,95.56
2022-08-22T01:10:21.002Z,95.34
2022-08-22T01:13:16.213Z,94.83
2022-08-22T01:15:45.855Z,94.74
2022-08-22T01:18:50.561Z,95.62
2022-08-22T01:21:58.685Z,95.08
2022-08-22T01:25:22.459Z,95.68
2022-08-22T01:28:23.949Z,96.17
2022-08-22T01:31:30.384Z,95.77
2022-08-22T01:34:36.633Z,95.90
2022-08-22T01:37:58.237Z,95.52
2022-08-22T01:40:58.759Z,96.32
2022-08-22T01:43:59.583Z,95.59
2022-08-22T01:46:50.979Z,96.10
2022-08-22T01:49:25.853Z,96.17
2022-08-22T01:51:59.542Z,96.74
2022-08-22T01:54:49.095Z,95.92
2022-08-22T01:57:17.758Z,95.61
2022-08-22T01:59:48.810Z,95.66
2022-08-22T02:02:42.993Z,95.89
2022-08-22T02:05:23.308Z,95.95
2022-08-22T02:08:00.604Z,95.49
2022-08-22T02:10:44.511Z,95.68
2022-08-22T02:13:26.505Z,95.28
2022-08-22T02:16:08.209Z,95.75
2022-08-22T02:18:52.100Z,96.03
2022-08-22T02:21:27.358Z,96.23
2022-08-22T02:24:04.025Z,95.46
2022-08-22T02:26:57.663Z,95.36
2022-08-22T02:29:35.363Z,95.23
2022-08-22T02:32:11.693Z,95.08
2022-08-22T02:34:44.759Z,96.15
2022-08-22T02:37:19.556Z,95.83
2022-08-22T02:39:54.854Z,96.13
2022-08-22T02:42:28.749Z,96.19
2022-08-22T02:45:04.954Z,95.88
2022-08-22T02:47:41.181Z,96.01
2022-08-22T02:50:18.908Z,96.72
2022-08-22T02:52:58.760Z,95.98
2022-08-22T02:55:51.348Z,95.58
2022-08-22T02:58:31.474Z,95.54
2022-08-22T03:01:23.325Z,96.09
2022-08-22T03:03:52.774Z,96.36
2022-08-22T03:06:36.401Z,96.42
2022-08-22T03:09:21.159Z,97.17
2022-08-22T03:12:02.126Z,97.22
2022-08-22T03:14:35.627Z,97.50
2022-08-22T03:17:11.509Z,97.00
2022-08-22T03:19:53.140Z,97.35
2022-08-22T03:22:27.052Z,96.91
2022-08-22T03:25:01.085Z,96.00
2022-08-22T03:27:37.869Z,95.80
2022-08-22T03:30:13.365Z,96.22
2022-08-22T03:32:56.897Z,96.46
2022-08-22T03:35:37.978Z,96.58
2022-08-22T03:38:21.496Z,96.86
2022-08-22T03:41:11.152Z,96.54
2022-08-22T03:44:06.436Z,96.77
2022-08-22T03:46:55.873Z,96.03
2022-08-22T03:49:59.793Z,96.63
2022-08-22T03:53:19.293Z,96.61
2022-08-22T03:56:32.824Z,96.55
2022-08-22T03:59:35.543Z,97.16
2022-08-22T04:02:42.792Z,96.46
2022-08-22T04:05:35.840Z,96.05
2022-08-22T04:08:30.617Z,96.76
2022-08-22T04:11:34.264Z,96.60
2022-08-22T04:14:33.798Z,96.13
2022-08-22T04:17:32.368Z,96.38
2022-08-22T04:20:35.563Z,96.12
2022-08-22T04:23:45.280Z,96.92
2022-08-22T04:26:17.327Z,96.26
2022-08-22T04:28:50.907Z,96.38
2022-08-22T04:31:28.230Z,95.91
2022-08-22T04:34:00.728Z,96.26
2022-08-22T04:36:35.902Z,96.41
2022-08-22T04:39:10.899Z,96.46
2022-08-22T04:41:49.182Z,96.52
2022-08-22T04:44:23.804Z,96.49
2022-08-22T04:47:00.001Z,96.07
2022-08-22T04:49:36.317Z,96.54
2022-08-22T04:52:11.715Z,97.00
2022-08-22T04:54:56.882Z,96.26
2022-08-22T04:57:33.616Z,97.50
2022-08-22T05:00:05.327Z,96.03
2022-08-22T05:02:38.209Z,91.79
2022-08-22T05:05:13.407Z,90.19
2022-08-22T05:07:48.210Z,93.65
2022-08-22T05:10:20.472Z,89.96
2022-08-22T05:12:55.835Z,85.89
2022-08-22T05:15:28.050Z,85.50
2022-08-22T05:18:03.947Z,75.80
2022-08-22T05:20:32.562Z,69.18
2022-08-22T05:23:06.342Z,65.35
2022-08-22T05:25:48.927Z,62.92
2022-08-22T05:28:26.369Z,61.53
2022-08-22T05:30:55.755Z,59.64
2022-08-22T05:33:30.119Z,53.93
2022-08-22T05:36:03.686Z,50.97
2022-08-22T05:38:41.467Z,50.76
2022-08-22T05:41:13.557Z,51.49
2022-08-22T05:43:45.268Z,45.84
2022-08-22T05:46:21.039Z,45.11
2022-08-22T05:49:00.223Z,45.59
2022-08-22T05:51:36.867Z,44.72
2022-08-22T05:54:20.164Z,41.83
2022-08-22T05:56:57.726Z,40.76
2022-08-22T05:59:30.422Z,41.54
2022-08-22T06:02:05.355Z,41.36
2022-08-22T06:04:38.939Z,39.02
2022-08-22T06:07:13.476Z,37.49
2022-08-22T06:10:13.870Z,37.08
2022-08-22T06:12:51.636Z,36.73
2022-08-22T06:15:24.339Z,34.59
2022-08-22T06:17:58.408Z,33.70
2022-08-22T06:20:31.074Z,34.86
2022-08-22T06:23:02.440Z,34.47
2022-08-22T06:25:34.144Z,30.84
2022-08-22T06:28:06.165Z,33.17
2022-08-22T06:30:36.694Z,35.78
2022-08-22T06:33:12.354Z,33.13
2022-08-22T06:36:02.843Z,30.04
2022-08-22T06:38:36.024Z,31.74
2022-08-22T06:41:10.706Z,30.27
2022-08-22T06:43:41.431Z,31.53
2022-08-22T06:46:11.738Z,29.39
2022-08-22T06:48:41.350Z,29.58
2022-08-22T06:51:13.490Z,29.07
2022-08-22T06:53:48.265Z,28.96
2022-08-22T06:56:22.911Z,27.83
2022-08-22T06:58:54.043Z,27.87
2022-08-22T07:01:29.867Z,26.69
2022-08-22T07:04:01.692Z,29.21
2022-08-22T07:06:35.896Z,26.88
2022-08-22T07:09:07.257Z,26.09
2022-08-22T07:11:39.439Z,25.78
2022-08-22T07:14:11.523Z,25.50
2022-08-22T07:16:43.484Z,26.96
2022-08-22T07:19:24.963Z,26.57
2022-08-22T07:21:55.209Z,25.44
2022-08-22T07:24:27.739Z,26.40
2022-08-22T07:27:16.046Z,27.43
2022-08-22T07:29:53.724Z,29.20
2022-08-22T07:32:27.662Z,27.32
2022-08-22T07:35:11.319Z,25.87
2022-08-22T07:37:58.556Z,25.32
2022-08-22T07:40:34.249Z,27.72
2022-08-22T07:43:11.998Z,26.63
2022-08-22T07:45:48.731Z,25.64
2022-08-22T07:48:26.195Z,26.66
2022-08-22T07:51:08.073Z,27.70
2022-08-22T07:53:44.678Z,24.05
2022-08-22T07:56:18.251Z,27.17
2022-08-22T07:58:49.242Z,26.97
2022-08-22T08:01:22.042Z,27.25
2022-08-22T08:03:55.452Z,26.73
2022-08-22T08:06:26.447Z,26.25
2022-08-22T08:08:57.330Z,28.03
2022-08-22T08:11:29.899Z,28.37
2022-08-22T08:14:02.719Z,28.15
2022-08-22T08:16:37.126Z,27.91
2022-08-22T08:19:05.144Z,28.45
2022-08-22T08:21:39.162Z,31.27
2022-08-22T08:24:13.502Z,28.41
2022-08-22T08:27:06.811Z,29.42
2022-08-22T08:29:34.387Z,27.96
2022-08-22T08:32:02.871Z,27.83
2022-08-22T08:34:34.716Z,31.03
2022-08-22T08:37:12.791Z,31.04
2022-08-22T08:39:45.857Z,31.34
2022-08-22T08:42:57.510Z,31.86
2022-08-22T08:45:40.491Z,30.51
2022-08-22T08:48:46.059Z,29.73
2022-08-22T08:51:29.414Z,29.31
2022-08-22T08:54:21.915Z,28.45
2022-08-22T08:56:59.556Z,28.66
2022-08-22T08:59:44.349Z,28.47
2022-08-22T09:02:34.814Z,29.50
2022-08-22T09:05:20.059Z,29.50
2022-08-22T09:08:18.541Z,28.90
2022-08-22T09:11:28.305Z,27.37
2022-08-22T09:14:12.510Z,26.46
2022-08-22T09:17:02.893Z,25.93
2022-08-22T09:19:50.463Z,26.44
2022-08-22T09:23:00.596Z,25.59
2022-08-22T09:28:30.672Z,25.00
2022-08-22T09:34:06.499Z,29.26
2022-08-22T09:36:48.088Z,28.86
2022-08-22T09:39:19.590Z,26.14
2022-08-22T09:40:15.957Z,26.82
2022-08-22T09:42:02.700Z,24.88
2022-08-22T09:44:41.519Z,22.03
2022-08-22T09:47:27.685Z,20.83
2022-08-22T09:50:17.053Z,21.00
2022-08-22T09:53:00.640Z,25.49
2022-08-22T09:55:42.031Z,27.75
2022-08-22T09:58:21.020Z,26.43
2022-08-22T10:00:56.438Z,27.65
2022-08-22T10:03:53.692Z,27.82
2022-08-22T10:06:29.206Z,29.11
2022-08-22T10:09:04.819Z,29.02
2022-08-22T10:11:43.339Z,27.56
2022-08-22T10:14:22.308Z,26.70
2022-08-22T10:17:08.897Z,23.89
2022-08-22T10:19:43.577Z,29.22
2022-08-22T10:22:35.001Z,28.13
2022-08-22T10:25:28.602Z,28.72
2022-08-22T10:28:28.544Z,30.43
2022-08-22T10:31:14.545Z,29.13
2022-08-22T10:33:49.411Z,29.95
2022-08-22T10:36:30.967Z,30.51
2022-08-22T10:39:08.034Z,29.36
2022-08-22T10:41:59.378Z,28.06
2022-08-22T10:44:39.887Z,28.96
2022-08-22T10:47:15.960Z,28.35
2022-08-22T10:49:51.527Z,29.92
2022-08-22T10:52:25.540Z,30.89
2022-08-22T10:55:09.610Z,31.61
2022-08-22T10:58:00.665Z,31.27
2022-08-22T11:00:46.190Z,29.63
2022-08-22T11:03:25.171Z,31.50
2022-08-22T11:05:58.846Z,31.36
2022-08-22T11:08:59.951Z,29.77
2022-08-22T11:11:46.072Z,28.30
2022-08-22T11:14:45.647Z,30.78
2022-08-22T11:17:33.213Z,30.87
2022-08-22T11:20:21.385Z,29.61
2022-08-22T11:23:08.526Z,28.57
2022-08-22T11:25:54.075Z,28.59
2022-08-22T11:28:35.020Z,29.45
2022-08-22T11:31:10.599Z,27.76
2022-08-22T11:33:47.203Z,29.08
2022-08-22T11:36:31.451Z,28.43
2022-08-22T11:39:18.367Z,29.41
2022-08-22T11:41:56.115Z,27.97
2022-08-22T11:44:32.104Z,30.05
2022-08-22T11:47:08.796Z,30.52
2022-08-22T11:49:51.985Z,30.78
2022-08-22T11:52:51.781Z,31.32
2022-08-22T11:55:34.307Z,31.51
2022-08-22T11:58:22.348Z,30.83
2022-08-22T12:01:01.109Z,31.93
2022-08-22T12:03:58.226Z,31.28
2022-08-22T12:07:01.945Z,31.56
2022-08-22T12:09:59.631Z,30.87
2022-08-22T12:12:48.338Z,31.05
2022-08-22T12:15:23.562Z,30.17
2022-08-22T12:18:25.594Z,31.00
2022-08-22T12:21:12.546Z,31.18
2022-08-22T12:24:11.322Z,31.09
2022-08-22T12:26:57.815Z,31.97
2022-08-22T12:29:40.012Z,31.96
2022-08-22T12:32:52.399Z,31.63
2022-08-22T12:35:36.467Z,31.99
2022-08-22T12:38:27.952Z,31.78
2022-08-22T12:41:28.518Z,32.90
2022-08-22T12:44:19.585Z,31.90
2022-08-22T12:47:04.224Z,31.38
2022-08-22T12:49:49.753Z,32.23
2022-08-22T12:52:33.228Z,31.50
2022-08-22T12:55:24.903Z,32.35
2022-08-22T12:58:03.617Z,31.45
2022-08-22T13:00:36.009Z,30.55
2022-08-22T13:03:09.555Z,30.18
2022-08-22T13:05:41.254Z,30.85
2022-08-22T13:08:17.483Z,29.64
2022-08-22T13:10:48.673Z,31.11
2022-08-22T13:13:31.764Z,32.29
2022-08-22T13:16:08.927Z,32.00
2022-08-22T13:18:48.238Z,31.28
2022-08-22T13:21:25.956Z,31.42
2022-08-22T13:24:05.775Z,31.56
2022-08-22T13:26:49.168Z,31.37
2022-08-22T13:29:26.074Z,32.39
2022-08-22T13:32:00.557Z,32.90
2022-08-22T13:34:40.170Z,34.27
2022-08-22T13:37:16.910Z,33.76
2022-08-22T13:39:52.695Z,33.86
2022-08-22T13:42:30.351Z,34.24
2022-08-22T13:45:04.617Z,33.88
2022-08-22T13:47:39.245Z,33.84
2022-08-22T13:50:14.539Z,34.03
2022-08-22T13:52:55.027Z,33.57
2022-08-22T13:55:31.241Z,33.27
2022-08-22T13:58:07.531Z,33.42
2022-08-22T14:01:31.113Z,33.43
2022-08-22T14:04:06.042Z,34.47
2022-08-22T14:07:14.611Z,34.34
2022-08-22T14:09:56.034Z,34.20
2022-08-22T14:12:28.815Z,34.26
2022-08-22T14:15:06.195Z,34.42
2022-08-22T14:17:42.438Z,34.96
2022-08-22T14:20:32.347Z,34.71
2022-08-22T14:23:05.418Z,35.53
2022-08-22T14:25:37.479Z,34.78
2022-08-22T14:28:10.420Z,34.50
2022-08-22T14:30:58.251Z,33.58
2022-08-22T14:33:32.460Z,33.28
2022-08-22T14:36:12.154Z,33.59
2022-08-22T14:38:48.171Z,33.56
2022-08-22T14:41:56.403Z,33.93
2022-08-22T14:44:27.014Z,33.84
2022-08-22T14:46:59.039Z,33.66
2022-08-22T14:49:32.741Z,33.77
2022-08-22T14:52:08.889Z,33.27
2022-08-22T14:54:38.281Z,33.32
2022-08-22T14:57:10.551Z,33.04
2022-08-22T14:59:50.082Z,31.96
2022-08-22T15:02:26.558Z,31.10
2022-08-22T15:04:56.673Z,32.04
2022-08-22T15:07:27.992Z,33.12
2022-08-22T15:10:01.102Z,32.01
2022-08-22T15:12:35.264Z,32.49
2022-08-22T15:15:11.927Z,33.20
2022-08-22T15:17:44.081Z,32.76
2022-08-22T15:20:27.766Z,32.21
2022-08-22T15:22:59.665Z,32.94
2022-08-22T15:25:33.383Z,32.60
2022-08-22T15:28:06.795Z,33.00
2022-08-22T15:30:47.371Z,33.06
2022-08-22T15:33:22.826Z,33.92
2022-08-22T15:35:53.127Z,33.37
2022-08-22T15:38:31.556Z,34.34
2022-08-22T15:41:31.281Z,34.19
2022-08-22T15:44:08.567Z,33.09
2022-08-22T15:46:46.878Z,33.85
2022-08-22T15:49:28.816Z,34.04
2022-08-22T15:52:14.530Z,33.74
2022-08-22T15:55:17.187Z,35.71
2022-08-22T15:57:53.422Z,35.55
2022-08-22T16:00:30.230Z,36.39
2022-08-22T16:03:04.280Z,36.14
2022-08-22T16:05:44.242Z,37.10
2022-08-22T16:08:15.858Z,37.13
2022-08-22T16:10:48.313Z,37.30
2022-08-22T16:13:34.070Z,37.00
2022-08-22T16:16:07.055Z,37.62
2022-08-22T16:19:13.907Z,37.30
2022-08-22T16:22:15.437Z,38.14
2022-08-22T16:25:19.364Z,37.41
2022-08-22T16:27:57.377Z,37.83
2022-08-22T16:30:39.296Z,38.07
2022-08-22T16:33:17.683Z,38.50
2022-08-22T16:36:24.682Z,38.38
2022-08-22T16:38:58.058Z,39.87
2022-08-22T16:41:34.647Z,39.65
2022-08-22T16:44:33.982Z,40.39
2022-08-22T16:47:13.349Z,40.86
2022-08-22T16:50:07.679Z,40.77
2022-08-22T16:52:54.089Z,41.11
2022-08-22T16:56:05.846Z,41.64
2022-08-22T16:59:09.909Z,41.78
2022-08-22T17:02:02.196Z,42.17
2022-08-22T17:04:40.126Z,41.85
2022-08-22T17:07:23.079Z,42.04
2022-08-22T17:10:12.203Z,42.80
2022-08-22T17:13:08.666Z,42.92
2022-08-22T17:15:58.221Z,43.26
2022-08-22T17:18:54.329Z,44.08
2022-08-22T17:21:26.943Z,44.11
2022-08-22T17:24:05.081Z,44.63
2022-08-22T17:26:50.938Z,43.67
2022-08-22T17:29:35.768Z,44.18
2022-08-22T17:32:16.391Z,44.88
2022-08-22T17:34:56.447Z,45.25
2022-08-22T17:37:39.279Z,45.22
2022-08-22T17:40:32.949Z,45.82
2022-08-22T17:43:42.975Z,45.12
2022-08-22T17:46:35.885Z,46.23
2022-08-22T17:49:21.831Z,46.60
2022-08-22T17:51:56.254Z,46.91
2022-08-22T17:54:34.507Z,47.74
2022-08-22T17:57:07.999Z,48.04
2022-08-22T17:59:50.014Z,48.34
2022-08-22T18:02:26.529Z,48.66
2022-08-22T18:05:06.166Z,49.05
2022-08-22T18:07:49.348Z,49.85
2022-08-22T18:10:25.998Z,49.85
2022-08-22T18:13:06.220Z,50.37
2022-08-22T18:15:43.357Z,50.17
2022-08-22T18:18:25.776Z,50.54
2022-08-22T18:21:01.916Z,50.33
2022-08-22T18:23:35.710Z,51.18
2022-08-22T18:26:19.839Z,51.39
2022-08-22T18:28:55.369Z,51.89
2022-08-22T18:31:38.408Z,52.64
2022-08-22T18:34:16.647Z,52.27
2022-08-22T18:36:53.243Z,52.69
2022-08-22T18:39:27.119Z,52.73
2022-08-22T18:42:03.631Z,52.89
2022-08-22T18:44:34.416Z,52.89
2022-08-22T18:47:13.235Z,53.48
2022-08-22T18:49:48.299Z,53.79
2022-08-22T18:52:23.063Z,53.87
2022-08-22T18:55:08.772Z,54.01
2022-08-22T18:57:57.404Z,54.33
2022-08-22T19:00:41.240Z,54.41
2022-08-22T19:03:28.935Z,54.46
2022-08-22T19:06:15.204Z,54.74
2022-08-22T19:09:07.898Z,54.58
2022-08-22T19:11:52.690Z,54.61
2022-08-22T19:14:43.127Z,54.86
2022-08-22T19:17:30.651Z,55.07
2022-08-22T19:20:21.087Z,55.48
2022-08-22T19:22:53.111Z,55.40
2022-08-22T19:25:26.870Z,55.67
2022-08-22T19:28:23.598Z,55.27
2022-08-22T19:30:52.943Z,55.68
2022-08-22T19:33:34.445Z,55.93
2022-08-22T19:36:12.545Z,56.56
2022-08-22T19:38:58.285Z,56.81
2022-08-22T19:41:41.465Z,57.20
2022-08-22T19:44:12.660Z,56.96
2022-08-22T19:46:43.207Z,57.83
2022-08-22T19:49:28.350Z,57.83
2022-08-22T19:52:11.989Z,58.10
2022-08-22T19:54:50.666Z,58.32
2022-08-22T19:57:26.674Z,58.35
2022-08-22T20:00:04.257Z,59.12
2022-08-22T20:02:40.691Z,59.31
2022-08-22T20:05:27.097Z,59.52
2022-08-22T20:08:14.780Z,59.89
2022-08-22T20:11:01.696Z,60.24
2022-08-22T20:13:34.501Z,60.42
2022-08-22T20:16:16.177Z,61.13
2022-08-22T20:19:26.186Z,62.06
2022-08-22T20:21:59.906Z,62.11
2022-08-22T20:24:39.738Z,62.97
2022-08-22T20:27:15.635Z,62.92
2022-08-22T20:29:49.856Z,63.27
2022-08-22T20:32:21.224Z,64.58
2022-08-22T20:34:55.125Z,64.43
2022-08-22T20:37:40.146Z,64.43
2022-08-22T20:40:55.463Z,65.34
2022-08-22T20:43:24.314Z,65.79
2022-08-22T20:46:04.872Z,67.20
2022-08-22T20:48:38.147Z,67.52
2022-08-22T20:51:07.436Z,68.51
2022-08-22T20:53:36.499Z,69.64
2022-08-22T20:56:07.054Z,70.30
2022-08-22T20:58:40.170Z,71.17
2022-08-22T21:01:12.362Z,71.73
2022-08-22T21:03:44.736Z,72.73
2022-08-22T21:06:15.975Z,73.23
2022-08-22T21:08:46.211Z,73.56
2022-08-22T21:11:40.549Z,73.76
2022-08-22T21:14:24.370Z,74.14
2022-08-22T21:16:53.152Z,74.68
2022-08-22T21:19:25.798Z,74.31
2022-08-22T21:21:54.735Z,75.00
2022-08-22T21:24:23.011Z,75.57
2022-08-22T21:26:56.818Z,75.52
2022-08-22T21:29:30.091Z,75.36
2022-08-22T21:32:12.490Z,75.44
2022-08-22T21:34:44.777Z,75.41
2022-08-22T21:37:16.505Z,75.91
2022-08-22T21:39:47.419Z,76.07
2022-08-22T21:42:24.572Z,77.32
2022-08-22T21:45:00.781Z,77.17
2022-08-22T21:47:32.494Z,77.83
2022-08-22T21:50:03.932Z,77.75
2022-08-22T21:52:34.147Z,78.23
2022-08-22T21:55:25.434Z,78.92
2022-08-22T21:58:35.523Z,79.50
2022-08-22T22:01:28.911Z,80.35
2022-08-22T22:03:57.817Z,79.55
2022-08-22T22:06:26.766Z,79.88
2022-08-22T22:08:55.245Z,79.65
2022-08-22T22:11:23.803Z,79.55
2022-08-22T22:13:51.787Z,79.56
2022-08-22T22:16:26.225Z,80.03
2022-08-22T22:18:54.241Z,81.28
2022-08-22T22:21:22.714Z,81.73
2022-08-22T22:23:51.877Z,81.74
2022-08-22T22:26:21.083Z,82.31
2022-08-22T22:28:50.254Z,81.92
2022-08-22T22:31:20.009Z,81.58
2022-08-22T22:33:48.001Z,81.63
2022-08-22T22:36:20.134Z,81.73
2022-08-22T22:38:49.215Z,82.60
2022-08-22T22:41:20.321Z,82.91
2022-08-22T22:43:48.320Z,82.95
2022-08-22T22:46:16.703Z,82.16
2022-08-22T22:48:46.139Z,82.08
2022-08-22T22:51:15.306Z,82.18
2022-08-22T22:53:44.897Z,82.25
2022-08-22T22:56:16.190Z,81.95
2022-08-22T22:58:44.905Z,82.10
2022-08-22T23:01:16.897Z,82.06
2022-08-22T23:03:47.346Z,81.92
2022-08-22T23:06:19.481Z,82.07
2022-08-22T23:08:48.542Z,81.32
2022-08-22T23:11:19.725Z,81.77
2022-08-22T23:13:49.230Z,82.12
2022-08-22T23:16:22.017Z,82.32
2022-08-22T23:18:52.203Z,82.22
2022-08-22T23:21:24.352Z,82.68
2022-08-22T23:23:54.795Z,82.91
2022-08-22T23:26:22.854Z,82.31
2022-08-22T23:28:50.863Z,82.27
2022-08-22T23:31:29.586Z,84.21
2022-08-22T23:34:03.297Z,83.79
2022-08-22T23:36:31.914Z,83.30
2022-08-22T23:38:59.981Z,84.10
2022-08-22T23:41:28.303Z,83.74
2022-08-22T23:43:56.707Z,84.82
2022-08-22T23:46:27.063Z,84.58
2022-08-22T23:48:55.351Z,84.15
2022-08-22T23:51:27.514Z,84.33
2022-08-22T23:53:57.788Z,84.51
2022-08-22T23:56:30.060Z,84.76
2022-08-22T23:58:59.191Z,84.54
